createdAt,value
2022-09-12T00:02:21.797Z,3.6
2022-09-12T00:08:05.318Z,3.9
2022-09-12T00:13:48.870Z,3.3
2022-09-12T00:19:33.931Z,3.4
2022-09-12T00:25:17.287Z,3.1
2022-09-12T00:31:00.613Z,3.6
2022-09-12T00:36:44.041Z,4.2
2022-09-12T00:42:27.271Z,3.3
2022-09-12T00:48:15.410Z,3.2
2022-09-12T00:53:59.453Z,3.6
2022-09-12T00:59:47.421Z,3.7
2022-09-12T01:05:31.838Z,4.2
2022-09-12T01:11:15.531Z,3.9
2022-09-12T01:16:59.014Z,3.8
2022-09-12T01:22:55.505Z,4.1
2022-09-12T01:28:48.183Z,4.8
2022-09-12T01:34:36.498Z,3
2022-09-12T01:40:23.432Z,3.5
2022-09-12T01:46:09.354Z,3.4
2022-09-12T01:51:56.694Z,3.9
2022-09-12T01:57:42.889Z,4
2022-09-12T02:03:29.979Z,4.4
2022-09-12T02:09:14.962Z,3.8
2022-09-12T02:15:02.006Z,3.1
2022-09-12T02:20:51.119Z,3.1
2022-09-12T02:26:37.009Z,3.5
2022-09-12T02:32:26.997Z,3.3
2022-09-12T02:38:12.163Z,4.1
2022-09-12T02:43:56.002Z,3.9
2022-09-12T02:49:39.588Z,3.8
2022-09-12T02:55:23.022Z,3.7
2022-09-12T03:01:10.650Z,3.6
2022-09-12T03:06:59.490Z,3.7
2022-09-12T03:12:49.851Z,3.8
2022-09-12T03:18:40.359Z,3.9
2022-09-12T03:24:28.222Z,3.4
2022-09-12T03:30:12.222Z,3.4
2022-09-12T03:35:55.931Z,3.6
2022-09-12T03:41:39.431Z,3.1
2022-09-12T03:47:22.593Z,3
2022-09-12T03:53:06.136Z,2.9
2022-09-12T03:58:49.602Z,3.9
2022-09-12T04:04:33.042Z,3.2
2022-09-12T04:10:18.989Z,2.8
2022-09-12T04:16:02.831Z,3.1
2022-09-12T04:21:46.304Z,5.3
2022-09-12T04:27:30.603Z,3.4
2022-09-12T04:33:13.611Z,3.5
2022-09-12T04:38:57.521Z,3
2022-09-12T04:44:40.912Z,4.1
2022-09-12T04:50:24.113Z,4.4
2022-09-12T04:56:08.937Z,4
2022-09-12T05:01:52.878Z,4.4
2022-09-12T05:07:35.695Z,3.8
2022-09-12T05:13:19.071Z,3.8
2022-09-12T05:19:02.444Z,4.4
2022-09-12T05:24:52.496Z,4.1
2022-09-12T05:36:19.714Z,4.1
2022-09-12T05:42:03.571Z,3.9
2022-09-12T05:47:48.939Z,4.3
2022-09-12T05:53:32.042Z,5.1
2022-09-12T05:59:17.658Z,4.1
2022-09-12T06:05:00.833Z,4
2022-09-12T06:10:44.249Z,4.1
2022-09-12T06:16:28.534Z,4.1
2022-09-12T06:22:12.175Z,3.7
2022-09-12T06:27:55.692Z,5
2022-09-12T06:33:41.203Z,5.4
2022-09-12T06:39:25.606Z,4.4
2022-09-12T06:45:11.286Z,5.9
2022-09-12T06:51:02.466Z,5.1
2022-09-12T06:56:45.787Z,5.5
2022-09-12T07:02:29.242Z,11
2022-09-12T07:08:12.618Z,13.9
2022-09-12T07:13:56.982Z,10
2022-09-12T07:19:40.413Z,9
2022-09-12T07:25:23.667Z,7.6
2022-09-12T07:31:12.808Z,10.9
2022-09-12T07:36:55.940Z,8.5
2022-09-12T07:42:40.188Z,10.4
2022-09-12T07:48:24.114Z,9.9
2022-09-12T07:54:10.205Z,5
2022-09-12T07:59:55.926Z,9.4
2022-09-12T08:05:39.219Z,7.9
2022-09-12T08:11:23.521Z,5.5
2022-09-12T08:17:06.624Z,11.7
2022-09-12T08:22:50.878Z,6.3
2022-09-12T08:28:35.185Z,7.2
2022-09-12T08:34:18.346Z,6.7
2022-09-12T08:40:01.808Z,5.6
2022-09-12T08:45:52.094Z,8.4
2022-09-12T08:51:35.842Z,5.6
2022-09-12T08:57:19.286Z,4.4
2022-09-12T09:03:21.682Z,3.6
2022-09-12T09:09:08.278Z,7.2
2022-09-12T09:15:02.663Z,3.9
2022-09-12T09:20:49.090Z,4.6
2022-09-12T09:26:39.258Z,5.6
2022-09-12T09:32:30.641Z,5.6
2022-09-12T09:38:23.025Z,6.1
2022-09-12T09:49:49.967Z,3.6
2022-09-12T09:55:36.081Z,3.7
2022-09-12T10:01:21.474Z,4.4
2022-09-12T10:07:06.443Z,3.6
2022-09-12T10:12:49.699Z,4.6
2022-09-12T10:18:43.257Z,2.5
2022-09-12T10:24:28.217Z,3.5
2022-09-12T10:30:19.339Z,2.3
2022-09-12T10:36:02.910Z,2.4
2022-09-12T10:41:46.800Z,2.1
2022-09-12T10:47:33.876Z,3.2
2022-09-12T10:53:21.052Z,4
2022-09-12T10:59:22.199Z,4
2022-09-12T11:05:11.905Z,2.6
2022-09-12T11:10:57.493Z,3.1
2022-09-12T11:16:46.068Z,2.3
2022-09-12T11:22:37.711Z,1.9
2022-09-12T11:28:34.634Z,3.1
2022-09-12T11:34:22.742Z,1.4
2022-09-12T11:40:10.641Z,2.2
2022-09-12T11:45:55.049Z,2.2
2022-09-12T11:51:42.095Z,2.2
2022-09-12T11:57:28.698Z,2.5
2022-09-12T12:03:16.765Z,1.2
2022-09-12T12:09:00.465Z,1.4
2022-09-12T12:14:45.509Z,2.4
2022-09-12T12:20:29.164Z,1.5
2022-09-12T12:26:17.592Z,3.6
2022-09-12T12:32:12.081Z,1.9
2022-09-12T12:37:57.518Z,1.7
2022-09-12T12:43:40.506Z,4.2
2022-09-12T12:49:27.955Z,1.9
2022-09-12T12:55:17.559Z,1.5
2022-09-12T13:01:13.867Z,1.3
2022-09-12T13:07:10.204Z,3
2022-09-12T13:12:54.311Z,1.9
2022-09-12T13:18:42.818Z,2.2
2022-09-12T13:24:26.283Z,3.4
2022-09-12T13:30:16.226Z,1.8
2022-09-12T13:36:09.703Z,2.9
2022-09-12T13:42:03.967Z,1.6
2022-09-12T13:47:48.658Z,1.8
2022-09-12T13:53:34.930Z,0.9
2022-09-12T13:59:18.370Z,1.2
2022-09-12T14:05:01.714Z,2.2
2022-09-12T14:10:45.900Z,2
2022-09-12T14:16:29.283Z,2
2022-09-12T14:22:15.531Z,2.2
2022-09-12T14:27:59.629Z,1.7
2022-09-12T14:33:53.840Z,1.7
2022-09-12T14:39:40.429Z,2.3
2022-09-12T14:45:26.944Z,2.7
2022-09-12T14:51:16.258Z,1.4
2022-09-12T14:57:00.262Z,2.9
2022-09-12T15:02:44.003Z,3.7
2022-09-12T15:08:27.655Z,1.9
2022-09-12T15:14:16.102Z,1.8
2022-09-12T15:19:59.486Z,1.4
2022-09-12T15:25:43.092Z,1.4
2022-09-12T15:31:29.280Z,1
2022-09-12T15:37:15.822Z,1.4
2022-09-12T15:42:58.823Z,1.9
2022-09-12T15:48:42.378Z,1
2022-09-12T15:54:25.338Z,1.5
2022-09-12T16:00:09.731Z,1.9
2022-09-12T16:05:53.170Z,2
2022-09-12T16:11:36.605Z,4.8
2022-09-12T16:17:19.782Z,2.2
2022-09-12T16:23:04.131Z,2.8
2022-09-12T16:28:47.691Z,2
2022-09-12T16:34:31.311Z,1.5
2022-09-12T16:40:15.041Z,3.5
2022-09-12T16:46:03.759Z,3.1
2022-09-12T16:51:47.312Z,2
2022-09-12T16:57:30.722Z,2
2022-09-12T17:03:14.358Z,3.1
2022-09-12T17:08:58.439Z,2.1
2022-09-12T17:14:41.785Z,1.7
2022-09-12T17:20:26.306Z,1.9
2022-09-12T17:26:11.309Z,2
2022-09-12T17:31:54.671Z,3.8
2022-09-12T17:37:38.040Z,6.1
2022-09-12T17:43:21.143Z,1.7
2022-09-12T17:49:04.939Z,3.6
2022-09-12T17:54:49.142Z,6.4
2022-09-12T18:00:33.154Z,2.1
2022-09-12T18:06:17.003Z,3.3
2022-09-12T18:12:00.698Z,1.8
2022-09-12T18:17:44.091Z,2.7
2022-09-12T18:23:27.727Z,3.2
2022-09-12T18:29:10.926Z,2.1
2022-09-12T18:34:54.588Z,1.8
2022-09-12T18:40:40.559Z,2.4
2022-09-12T18:46:24.016Z,2.9
2022-09-12T18:52:07.422Z,1.7
2022-09-12T18:57:50.962Z,2.2
2022-09-12T19:03:34.154Z,2.1
2022-09-12T19:09:18.355Z,2.2
2022-09-12T19:15:01.659Z,2.1
2022-09-12T19:20:44.908Z,2.3
2022-09-12T19:26:28.558Z,2.5
2022-09-12T19:32:11.910Z,1.7
2022-09-12T19:37:55.246Z,2
2022-09-12T19:43:39.270Z,1.4
2022-09-12T19:49:22.850Z,2
2022-09-12T19:55:06.079Z,3.2
2022-09-12T20:00:49.730Z,4.2
2022-09-12T20:06:32.961Z,2.5
2022-09-12T20:12:16.303Z,1.4
2022-09-12T20:18:00.302Z,1.8
2022-09-12T20:23:44.734Z,2.1
2022-09-12T20:29:27.955Z,2.1
2022-09-12T20:35:12.248Z,1.8
2022-09-12T20:40:55.468Z,2.9
2022-09-12T20:46:39.138Z,2.6
2022-09-12T20:52:22.974Z,3.1
2022-09-12T20:58:06.695Z,4.7
2022-09-12T21:03:51.798Z,2.3
2022-09-12T21:09:35.360Z,2.5
2022-09-12T21:15:18.642Z,3.1
2022-09-12T21:21:02.175Z,2.6
2022-09-12T21:26:45.454Z,3
2022-09-12T21:32:28.780Z,2
2022-09-12T21:38:11.976Z,2.4
2022-09-12T21:43:55.317Z,2.1
2022-09-12T21:49:39.019Z,1.7
2022-09-12T21:55:22.731Z,3.4
2022-09-12T22:01:13.322Z,1.3
2022-09-12T22:06:56.982Z,2.4
2022-09-12T22:12:46.977Z,2.8
2022-09-12T22:18:30.255Z,3.9
2022-09-12T22:24:13.428Z,1.9
2022-09-12T22:29:56.714Z,2.7
2022-09-12T22:35:40.451Z,2
2022-09-12T22:41:24.241Z,2.1
2022-09-12T22:47:07.478Z,2.4
2022-09-12T22:52:51.095Z,3.3
2022-09-12T22:58:34.326Z,2.5
2022-09-12T23:04:18.016Z,2.8
2022-09-12T23:10:01.785Z,2.5
2022-09-12T23:15:45.194Z,1.8
2022-09-12T23:21:28.558Z,2.2
2022-09-12T23:27:11.950Z,2.1
2022-09-12T23:32:55.136Z,1.8
2022-09-12T23:38:38.581Z,2.1
2022-09-12T23:44:21.953Z,2.5
2022-09-12T23:50:05.402Z,1.9
2022-09-12T23:55:49.479Z,1.7
